地図

経路データ

SID SEASON NUMBER BASIN SUBBASIN NAME ISO_TIME NATURE LAT LON WMO_WIND WMO_PRES WMO_AGENCY TRACK_TYPE DIST2LAND LANDFALL IFLAG USA_AGENCY USA_ATCF_ID USA_LAT USA_LON USA_RECORD USA_STATUS USA_WIND USA_PRES USA_SSHS USA_R34_NE USA_R34_SE USA_R34_SW USA_R34_NW USA_R50_NE USA_R50_SE USA_R50_SW USA_R50_NW USA_R64_NE USA_R64_SE USA_R64_SW USA_R64_NW USA_POCI USA_ROCI USA_RMW USA_EYE TOKYO_LAT TOKYO_LON TOKYO_GRADE TOKYO_WIND TOKYO_PRES TOKYO_R50_DIR TOKYO_R50_LONG TOKYO_R50_SHORT TOKYO_R30_DIR TOKYO_R30_LONG TOKYO_R30_SHORT TOKYO_LAND CMA_LAT CMA_LON CMA_CAT CMA_WIND CMA_PRES HKO_LAT HKO_LON HKO_CAT HKO_WIND HKO_PRES NEWDELHI_LAT NEWDELHI_LON NEWDELHI_GRADE NEWDELHI_WIND NEWDELHI_PRES NEWDELHI_CI NEWDELHI_DP NEWDELHI_POCI REUNION_LAT REUNION_LON REUNION_TYPE REUNION_WIND REUNION_PRES REUNION_TNUM REUNION_CI REUNION_RMW REUNION_R34_NE REUNION_R34_SE REUNION_R34_SW REUNION_R34_NW REUNION_R50_NE REUNION_R50_SE REUNION_R50_SW REUNION_R50_NW REUNION_R64_NE REUNION_R64_SE REUNION_R64_SW REUNION_R64_NW BOM_LAT BOM_LON BOM_TYPE BOM_WIND BOM_PRES BOM_TNUM BOM_CI BOM_RMW BOM_R34_NE BOM_R34_SE BOM_R34_SW BOM_R34_NW BOM_R50_NE BOM_R50_SE BOM_R50_SW BOM_R50_NW BOM_R64_NE BOM_R64_SE BOM_R64_SW BOM_R64_NW BOM_ROCI BOM_POCI BOM_EYE BOM_POS_METHOD BOM_PRES_METHOD NADI_LAT NADI_LON NADI_CAT NADI_WIND NADI_PRES WELLINGTON_LAT WELLINGTON_LON WELLINGTON_WIND WELLINGTON_PRES DS824_LAT DS824_LON DS824_STAGE DS824_WIND DS824_PRES TD9636_LAT TD9636_LON TD9636_STAGE TD9636_WIND TD9636_PRES TD9635_LAT TD9635_LON TD9635_WIND TD9635_PRES TD9635_ROCI NEUMANN_LAT NEUMANN_LON NEUMANN_CLASS NEUMANN_WIND NEUMANN_PRES MLC_LAT MLC_LON MLC_CLASS MLC_WIND MLC_PRES USA_GUST BOM_GUST BOM_GUST_PER REUNION_GUST REUNION_GUST_PER USA_SEAHGT USA_SEARAD_NE USA_SEARAD_SE USA_SEARAD_SW USA_SEARAD_NW STORM_SPEED STORM_DIR
1996098S13085 1996 31 SI MM ITELLE 1996-04-06 12:00:00 TS -12.8000 85.1000 main 1964 1964 O___________O_ jtwc_sh SH261996 -12.8000 85.1000 20 -1 -12.8000 85.1000 TC 20 4 290
1996098S13085 1996 31 SI MM ITELLE 1996-04-06 15:00:00 TS -12.7325 84.9075 main 1974 1974 P___________P_ SH261996 -12.7325 84.9075 20 -1 -12.7325 84.9075 TC 20 4 288
1996098S13085 1996 31 SI MM ITELLE 1996-04-06 18:00:00 TS -12.6714 84.6857 15 1004 reunion main 1992 1992 O____O______O_ jtwc_sh SH261996 -12.7000 84.7000 20 -1 -12.5000 84.6000 2 15 1004 1.50000 1.50000 -12.7000 84.7000 TC 20 5 275
1996098S13085 1996 31 SI MM ITELLE 1996-04-06 21:00:00 TS -12.6920 84.4395 main 2018 2018 P____P______P_ SH261996 -12.7275 84.4650 20 -1 -12.5501 84.3375 2 15 1004 -12.7275 84.4650 TC 20 5 262
1996098S13085 1996 31 SI MM ITELLE 1996-04-07 00:00:00 TS -12.7455 84.1727 15 1004 reunion main 2035 2035 O____O______O_ jtwc_sh SH261996 -12.8000 84.2000 20 -1 -12.6000 84.1000 2 15 1004 1.50000 1.50000 -12.8000 84.2000 TC 20 5 258
1996098S13085 1996 31 SI MM ITELLE 1996-04-07 03:00:00 TS -12.8016 83.9199 main 2068 2068 P____P______P_ SH261996 -12.8774 83.9299 20 -1 -12.6499 83.9000 2 15 1004 -12.8774 83.9299 TC 20 5 254
1996098S13085 1996 31 SI MM ITELLE 1996-04-07 06:00:00 TS -12.9000 83.6333 15 1004 reunion main 2101 2101 O____O______O_ jtwc_sh SH261996 -13.0000 83.6000 20 -1 -12.7000 83.7000 2 15 1004 1.50000 1.50000 -13.0000 83.6000 TC 20 7 249
1996098S13085 1996 31 SI MM ITELLE 1996-04-07 09:00:00 TS -13.0375 83.2750 main 2134 2134 P____P______P_ SH261996 -13.1850 83.1800 20 -1 -12.7425 83.4650 2 17 1003 -13.1850 83.1800 TC 20 8 248
1996098S13085 1996 31 SI MM ITELLE 1996-04-07 12:00:00 TS -13.2000 82.8667 20 1002 reunion main 2154 2153 O____O______O_ jtwc_sh SH261996 -13.4000 82.7000 20 -1 -12.8000 83.2000 2 20 1002 2.00000 2.00000 -13.4000 82.7000 TC 20 9 248
1996098S13085 1996 31 SI MM ITELLE 1996-04-07 15:00:00 TS -13.3666 82.4458 main 2171 2169 P____P______P_ SH261996 -13.5999 82.2149 22 -1 -12.9000 82.9075 2 20 1002 -13.5999 82.2149 TC 22 9 248
1996098S13085 1996 31 SI MM ITELLE 1996-04-07 18:00:00 TS -13.5333 82.0000 20 1002 reunion main 2179 2179 O____O______O_ jtwc_sh SH261996 -13.8000 81.7000 25 -1 -13.0000 82.6000 2 20 1002 2.00000 2.00000 -13.8000 81.7000 TC 25 9 249
1996098S13085 1996 31 SI MM ITELLE 1996-04-07 21:00:00 TS -13.7058 81.5384 main 2198 2197 P____P______P_ SH261996 -14.0299 81.1576 25 -1 -13.0575 82.3000 2 20 1002 -14.0299 81.1576 TC 25 10 252
1996098S13085 1996 31 SI MM ITELLE 1996-04-08 00:00:00 TS -13.8333 81.0667 20 1002 reunion main 2207 2207 O____O______O_ jtwc_sh SH261996 -14.2000 80.6000 25 -1 -13.1000 82.0000 2 20 1002 2.00000 2.00000 -14.2000 80.6000 TC 25 9 259
1996098S13085 1996 31 SI MM ITELLE 1996-04-08 03:00:00 TS -13.8800 80.5924 main 2218 2218 P____P______P_ SH261996 -14.2450 80.0349 25 -1 -13.1499 81.7075 2 22 1001 -14.2450 80.0349 TC 25 9 268
1996098S13085 1996 31 SI MM ITELLE 1996-04-08 06:00:00 TS -13.8667 80.1333 25 1000 reunion main 2218 2208 O____O______O_ jtwc_sh SH261996 -14.2000 79.5000 25 -1 -13.2000 81.4000 2 25 1000 2.00000 2.00000 -14.2000 79.5000 TC 25 9 273
1996098S13085 1996 31 SI MM ITELLE 1996-04-08 09:00:00 TS -13.8291 79.6966 main 2209 2209 P____P______P_ SH261996 -14.1150 79.0049 27 -1 -13.2574 81.0800 2 25 1000 -14.1150 79.0049 TC 27 8 277
1996098S13085 1996 31 SI MM ITELLE 1996-04-08 12:00:00 TS -13.7667 79.3000 25 1000 reunion main 2211 2201 O____O______O_ jtwc_sh SH261996 -14.0000 78.6000 30 -1 -13.3000 80.7000 2 25 1000 2.00000 2.00000 -14.0000 78.6000 TC 30 7 280
1996098S13085 1996 31 SI MM ITELLE 1996-04-08 15:00:00 TS -13.6974 78.9517 main 2203 2194 P____P______P_ SH261996 -13.8924 78.3200 32 -1 -13.3076 80.2150 2 26 999 -13.8924 78.3200 TC 32 7 282
1996098S13085 1996 31 SI MM ITELLE 1996-04-08 18:00:00 TS -13.6333 78.6333 28 998 reunion main 2195 2195 O____O______O_ jtwc_sh SH261996 -13.8000 78.1000 35 0 -13.3000 79.7000 2 28 998 2.50000 2.50000 -13.8000 78.1000 TC 35 6 279
1996098S13085 1996 31 SI MM ITELLE 1996-04-08 21:00:00 TS -13.5949 78.3142 main 2199 2199 P____P______P_ SH261996 -13.7425 77.8500 35 0 -13.2999 79.2425 2 28 998 -13.7425 77.8500 TC 35 6 276
1996098S13085 1996 31 SI MM ITELLE 1996-04-09 00:00:00 TS -13.5667 78.0000 28 998 reunion main 2203 2195 O____O______O_ jtwc_sh SH261996 -13.7000 77.6000 35 0 -13.3000 78.8000 2 28 998 2.50000 2.50000 -13.7000 77.6000 TC 35 6 275
1996098S13085 1996 31 SI MM ITELLE 1996-04-09 03:00:00 TS -13.5383 77.6834 main 2197 2197 P____P______P_ SH261996 -13.6575 77.3500 35 0 -13.2999 78.3500 2 29 996 -13.6575 77.3500 TC 35 6 276
1996098S13085 1996 31 SI MM ITELLE 1996-04-09 06:00:00 TS -13.5000 77.3667 30 995 reunion main 2202 2188 O____O______O_ jtwc_sh SH261996 -13.6000 77.1000 35 0 -13.3000 77.9000 2 30 995 2.50000 2.50000 -13.6000 77.1000 TC 35 6 279
1996098S13085 1996 31 SI MM ITELLE 1996-04-09 09:00:00 TS -13.4383 77.0625 main 2192 2162 P____P______P_ SH261996 -13.5074 76.8725 35 0 -13.3000 77.4425 2 32 993 -13.5074 76.8725 TC 35 6 282
1996098S13085 1996 31 SI MM ITELLE 1996-04-09 12:00:00 TS -13.3667 76.7333 35 992 reunion main 2152 2127 O____O______O_ jtwc_sh SH261996 -13.4000 76.6000 35 0 -13.3000 77.0000 3 35 992 3.00000 3.00000 -13.4000 76.6000 TC 35 7 281
1996098S13085 1996 31 SI MM ITELLE 1996-04-09 15:00:00 TS -13.2975 76.3508 main 2127 2092 P____P______P_ SH261996 -13.2925 76.2225 37 0 -13.3073 76.6075 3 37 990 -13.2925 76.2225 TC 37 8 280
1996098S13085 1996 31 SI MM ITELLE 1996-04-09 18:00:00 TS -13.2333 75.9333 40 988 reunion main 2082 2043 O____O______O_ jtwc_sh SH261996 -13.2000 75.8000 40 0 -13.3000 76.2000 3 40 988 3.00000 3.00000 -13.2000 75.8000 TC 40 8 278
1996098S13085 1996 31 SI MM ITELLE 1996-04-09 21:00:00 TS -13.1783 75.5075 main 2043 2009 P____P______P_ SH261996 -13.1424 75.4076 42 0 -13.2500 75.7074 3 42 986 -13.1424 75.4076 TC 42 9 277
1996098S13085 1996 31 SI MM ITELLE 1996-04-10 00:00:00 TS -13.1333 75.0667 45 984 reunion main 2009 1960 O____O______O_ jtwc_sh SH261996 -13.1000 75.0000 45 0 -13.2000 75.2000 3 45 984 3.50000 3.50000 -13.1000 75.0000 TC 45 9 276
1996098S13085 1996 31 SI MM ITELLE 1996-04-10 03:00:00 TS -13.0949 74.6192 main 1960 1922 P____P______P_ SH261996 -13.0424 74.5650 47 0 -13.2000 74.7276 3 45 984 -13.0424 74.5650 TC 47 9 274
1996098S13085 1996 31 SI MM ITELLE 1996-04-10 06:00:00 TS -13.0667 74.1667 45 984 reunion main 1922 1879 O____O______O_ jtwc_sh SH261996 -13.0000 74.1000 50 0 -13.2000 74.3000 3 45 984 3.50000 3.50000 -13.0000 74.1000 TC 50 9 274
1996098S13085 1996 31 SI MM ITELLE 1996-04-10 09:00:00 TS -13.0399 73.7141 main 1879 1841 P____P______P_ SH261996 -12.9850 73.6000 52 0 -13.1499 73.9425 3 50 979 -12.9850 73.6000 TC 52 9 272
1996098S13085 1996 31 SI MM ITELLE 1996-04-10 12:00:00 TS -13.0333 73.2667 55 975 reunion main 1841 1788 O____O______O_ jtwc_sh SH261996 -13.0000 73.1000 55 0 -13.1000 73.6000 3 55 975 4.00000 4.00000 -13.0000 73.1000 TC 55 9 268
1996098S13085 1996 31 SI MM ITELLE 1996-04-10 15:00:00 TS -13.0641 72.8259 main 1788 1750 P____P______P_ SH261996 -13.0500 72.6276 57 0 -13.0924 73.2225 3 60 970 -13.0500 72.6276 TC 57 8 265
1996098S13085 1996 31 SI MM ITELLE 1996-04-10 18:00:00 TS -13.1000 72.4000 65 965 reunion main 1750 1712 O____O______O_ jtwc_sh SH261996 -13.1000 72.2000 60 0 -13.1000 72.8000 4 65 965 4.50000 4.50000 -13.1000 72.2000 TC 60 8 268
1996098S13085 1996 31 SI MM ITELLE 1996-04-10 21:00:00 TS -13.0975 71.9824 main 1712 1674 P____P______P_ SH261996 -13.0999 71.8199 65 1 -13.0925 72.3075 4 67 960 -13.0999 71.8199 TC 65 8 270
1996098S13085 1996 31 SI MM ITELLE 1996-04-11 00:00:00 TS -13.1000 71.6000 70 955 reunion main 1674 1646 O____O______O_ jtwc_sh SH261996 -13.1000 71.5000 70 1 -13.1000 71.8000 4 70 955 5.00000 5.00000 -13.1000 71.5000 TC 70 7 267
1996098S13085 1996 31 SI MM ITELLE 1996-04-11 03:00:00 TS -13.1400 71.2608 main 1646 1612 P____P______P_ SH261996 -13.1424 71.2350 75 1 -13.1350 71.3125 4 75 950 -13.1424 71.2350 TC 75 6 261
1996098S13085 1996 31 SI MM ITELLE 1996-04-11 06:00:00 TS -13.2000 70.9667 80 945 reunion main 1612 1579 O____O______O_ jtwc_sh SH261996 -13.2000 71.0000 80 1 -13.2000 70.9000 4 80 945 5.50000 5.50000 -13.2000 71.0000 TC 80 6 258
1996098S13085 1996 31 SI MM ITELLE 1996-04-11 09:00:00 TS -13.2591 70.6992 main 1579 1560 P____P______P_ SH261996 -13.2425 70.7500 85 2 -13.2924 70.5975 4 80 945 -13.2425 70.7500 TC 85 5 255
1996098S13085 1996 31 SI MM ITELLE 1996-04-11 12:00:00 TS -13.3333 70.4667 80 945 reunion main 1560 1536 O____O______O_ jtwc_sh SH261996 -13.3000 70.5000 90 2 -13.4000 70.4000 4 80 945 5.50000 5.50000 -13.3000 70.5000 TC 90 5 248
1996098S13085 1996 31 SI MM ITELLE 1996-04-11 15:00:00 TS -13.4308 70.2691 main 1536 1511 P____P______P_ SH261996 -13.4000 70.2425 92 2 -13.4923 70.3224 4 82 940 -13.4000 70.2425 TC 92 4 243
1996098S13085 1996 31 SI MM ITELLE 1996-04-11 18:00:00 TS -13.5333 70.0667 85 935 reunion main 1511 1478 O____O______O_ jtwc_sh SH261996 -13.5000 70.0000 95 2 -13.6000 70.2000 4 85 935 5.50000 5.50000 -13.5000 70.0000 TC 95 5 247
1996098S13085 1996 31 SI MM ITELLE 1996-04-11 21:00:00 TS -13.6167 69.8200 main 1478 1453 P____P______P_ SH261996 -13.5499 69.8149 97 3 -13.7502 69.8301 4 87 932 -13.5499 69.8149 TC 97 5 252
1996098S13085 1996 31 SI MM ITELLE 1996-04-12 00:00:00 TS -13.7000 69.5333 90 930 reunion main 1444 1411 O____O______O_ jtwc_sh SH261996 -13.6000 69.6000 100 3 -13.9000 69.4000 4 90 930 6.00000 6.00000 -13.6000 69.6000 TC 100 6 253
1996098S13085 1996 31 SI MM ITELLE 1996-04-12 03:00:00 TS -13.8000 69.2025 main 1411 1377 P____P______P_ SH261996 -13.6926 69.2650 102 3 -14.0149 69.0775 4 90 930 -13.6926 69.2650 TC 102 7 253
1996098S13085 1996 31 SI MM ITELLE 1996-04-12 06:00:00 TS -13.9000 68.8667 90 930 reunion main 1377 1344 O____O______O_ jtwc_sh SH261996 -13.8000 68.9000 105 3 -14.1000 68.8000 4 90 930 6.00000 6.00000 -13.8000 68.9000 TC 105 6 253
1996098S13085 1996 31 SI MM ITELLE 1996-04-12 09:00:00 TS -13.9857 68.5833 main 1344 1311 P____P______P_ SH261996 -13.8999 68.6000 107 3 -14.1574 68.5500 4 92 927 -13.8999 68.6000 TC 107 6 253
1996098S13085 1996 31 SI MM ITELLE 1996-04-12 12:00:00 TS -14.0667 68.3000 95 925 reunion main 1311 1283 O____O______O_ jtwc_sh SH261996 -14.0000 68.3000 110 3 -14.2000 68.3000 4 95 925 6.00000 6.00000 -14.0000 68.3000 TC 110 6 255
1996098S13085 1996 31 SI MM ITELLE 1996-04-12 15:00:00 TS -14.1475 67.9791 main 1283 1250 P____P______P_ SH261996 -14.1000 67.9575 112 3 -14.2424 68.0224 4 95 925 -14.1000 67.9575 TC 112 7 256
1996098S13085 1996 31 SI MM ITELLE 1996-04-12 18:00:00 TS -14.2333 67.6333 95 925 reunion main 1241 1208 O____O______O_ jtwc_sh SH261996 -14.2000 67.6000 115 4 -14.3000 67.7000 4 95 925 6.00000 6.00000 -14.2000 67.6000 TC 115 7 254
1996098S13085 1996 31 SI MM ITELLE 1996-04-12 21:00:00 TS -14.3408 67.2792 main 1208 1166 P____P______P_ SH261996 -14.3074 67.2575 117 4 -14.4075 67.3226 4 95 925 -14.3074 67.2575 TC 117 7 254
1996098S13085 1996 31 SI MM ITELLE 1996-04-13 00:00:00 TS -14.4333 66.9000 95 925 reunion main 1166 1124 O____O______O_ jtwc_sh SH261996 -14.4000 66.9000 120 4 -14.5000 66.9000 4 95 925 6.00000 6.00000 -14.4000 66.9000 TC 120 8 260
1996098S13085 1996 31 SI MM ITELLE 1996-04-13 03:00:00 TS -14.4742 66.4858 main 1124 1089 P____P______P_ SH261996 -14.4575 66.5074 122 4 -14.5075 66.4424 4 95 925 -14.4575 66.5074 TC 122 8 265
1996098S13085 1996 31 SI MM ITELLE 1996-04-13 06:00:00 TS -14.5000 66.0667 95 925 reunion main 1089 1055 O____O______O_ jtwc_sh SH261996 -14.5000 66.1000 125 4 -14.5000 66.0000 4 95 925 6.00000 6.00000 -14.5000 66.1000 TC 125 8 265
1996098S13085 1996 31 SI MM ITELLE 1996-04-13 09:00:00 TS -14.5398 65.6908 main 1055 1014 P____P______P_ SH261996 -14.5423 65.7149 127 4 -14.5348 65.6425 4 95 925 -14.5423 65.7149 TC 127 7 262
1996098S13085 1996 31 SI MM ITELLE 1996-04-13 12:00:00 TS -14.6000 65.3000 95 925 reunion main 1014 973 O____O______O_ jtwc_sh SH261996 -14.6000 65.3000 130 4 -14.6000 65.3000 4 95 925 5.50000 6.00000 -14.6000 65.3000 TC 130 8 260
1996098S13085 1996 31 SI MM ITELLE 1996-04-13 15:00:00 TS -14.6900 64.8408 main 965 925 P____P______P_ SH261996 -14.6926 64.8000 132 4 -14.6849 64.9224 4 92 927 -14.6926 64.8000 TC 132 9 258
1996098S13085 1996 31 SI MM ITELLE 1996-04-13 18:00:00 TS -14.8000 64.3667 90 930 reunion main 925 877 O____O______O_ jtwc_sh SH261996 -14.8000 64.3000 135 4 -14.8000 64.5000 4 90 930 5.50000 6.00000 -14.8000 64.3000 TC 135 9 256
1996098S13085 1996 31 SI MM ITELLE 1996-04-13 21:00:00 TS -14.9091 63.9233 main 877 838 P____P______P_ SH261996 -14.8923 63.8849 137 5 -14.9426 64.0000 4 87 932 -14.8923 63.8849 TC 137 9 254
1996098S13085 1996 31 SI MM ITELLE 1996-04-14 00:00:00 TS -15.0333 63.5000 85 935 reunion main 838 792 O____O______O_ jtwc_sh SH261996 -15.0000 63.5000 140 5 -15.1000 63.5000 4 85 935 5.50000 5.50000 -15.0000 63.5000 TC 140 8 252
1996098S13085 1996 31 SI MM ITELLE 1996-04-14 03:00:00 TS -15.1733 63.0900 main 792 754 P____P______P_ SH261996 -15.1350 63.0925 140 5 -15.2498 63.0849 4 82 940 -15.1350 63.0925 TC 140 8 249
1996098S13085 1996 31 SI MM ITELLE 1996-04-14 06:00:00 TS -15.3333 62.7000 80 945 reunion main 754 708 O____O______O_ jtwc_sh SH261996 -15.3000 62.7000 140 5 -15.4000 62.7000 4 80 945 5.50000 5.50000 -15.3000 62.7000 TC 140 8 245
1996098S13085 1996 31 SI MM ITELLE 1996-04-14 09:00:00 TS -15.5191 62.3283 main 708 670 P____P______P_ SH261996 -15.4999 62.3425 140 5 -15.5574 62.3000 4 80 945 -15.4999 62.3425 TC 140 8 243
1996098S13085 1996 31 SI MM ITELLE 1996-04-14 12:00:00 TS -15.7000 61.9667 80 945 reunion main 670 633 O____O______O_ jtwc_sh SH261996 -15.7000 62.0000 140 5 -15.7000 61.9000 4 80 945 5.00000 5.50000 -15.7000 62.0000 TC 140 8 246
1996098S13085 1996 31 SI MM ITELLE 1996-04-14 15:00:00 TS -15.8307 61.6073 main 633 596 P____P______P_ SH261996 -15.8499 61.6648 135 4 -15.7925 61.4923 4 80 945 -15.8499 61.6648 TC 135 8 249
1996098S13085 1996 31 SI MM ITELLE 1996-04-14 18:00:00 TS -15.9667 61.2333 80 945 reunion main 589 560 O____O______O_ jtwc_sh SH261996 -16.0000 61.3000 130 4 -15.9000 61.1000 4 80 945 4.50000 5.50000 -16.0000 61.3000 TC 130 8 247
1996098S13085 1996 31 SI MM ITELLE 1996-04-14 21:00:00 TS -16.1491 60.8316 main 554 502 P____P______P_ SH261996 -16.1850 60.8649 122 4 -16.0773 60.7649 4 77 947 -16.1850 60.8649 TC 122 9 243
1996098S13085 1996 31 SI MM ITELLE 1996-04-15 00:00:00 TS -16.3667 60.4000 75 950 reunion main 502 460 O____O______O_ jtwc_sh SH261996 -16.4000 60.4000 115 4 -16.3000 60.4000 4 75 950 4.00000 5.00000 -16.4000 60.4000 TC 115 10 241
1996098S13085 1996 31 SI MM ITELLE 1996-04-15 03:00:00 TS -16.6191 59.9384 main 455 405 P____P______P_ SH261996 -16.6499 59.9500 105 3 -16.5576 59.9151 4 70 957 -16.6499 59.9500 TC 105 10 241
1996098S13085 1996 31 SI MM ITELLE 1996-04-15 06:00:00 TS -16.8667 59.4667 65 965 reunion main 405 362 O____O______O_ jtwc_sh SH261996 -16.9000 59.5000 95 2 -16.8000 59.4000 4 65 965 4.00000 4.50000 -16.9000 59.5000 TC 95 10 243
1996098S13085 1996 31 SI MM ITELLE 1996-04-15 09:00:00 TS -17.0774 59.0066 main 362 338 P____P______P_ SH261996 -17.1299 59.0425 90 2 -16.9724 58.9349 4 60 970 -17.1299 59.0425 TC 90 9 247
1996098S13085 1996 31 SI MM ITELLE 1996-04-15 12:00:00 TS -17.2333 58.5667 55 975 reunion main 338 317 O____O______O_ jtwc_sh SH261996 -17.3000 58.6000 85 2 -17.1000 58.5000 3 55 975 4.00000 4.00000 -17.3000 58.6000 TC 85 9 253
1996098S13085 1996 31 SI MM ITELLE 1996-04-15 15:00:00 TS -17.3275 58.1341 main 316 302 P____P______P_ SH261996 -17.3800 58.1624 80 1 -17.2225 58.0775 3 55 975 -17.3800 58.1624 TC 80 8 260
1996098S13085 1996 31 SI MM ITELLE 1996-04-15 18:00:00 TS -17.3667 57.7667 55 975 reunion main 302 302 O____O______O_ jtwc_sh SH261996 -17.4000 57.8000 75 1 -17.3000 57.7000 3 55 975 4.00000 4.00000 -17.4000 57.8000 TC 75 6 265
1996098S13085 1996 31 SI MM ITELLE 1996-04-15 21:00:00 TS -17.3766 57.4983 main 302 302 P____P______P_ SH261996 -17.4074 57.5550 70 1 -17.3149 57.3849 3 55 975 -17.4074 57.5550 TC 70 4 270
1996098S13085 1996 31 SI MM ITELLE 1996-04-16 00:00:00 TS -17.3667 57.3000 55 975 reunion main 302 302 O____O______O_ jtwc_sh SH261996 -17.4000 57.4000 65 1 -17.3000 57.1000 3 55 975 3.50000 4.00000 -17.4000 57.4000 TC 65 4 273
1996098S13085 1996 31 SI MM ITELLE 1996-04-16 03:00:00 TS -17.3591 57.1233 main 304 304 P____P______P_ SH261996 -17.3925 57.2925 65 1 -17.2925 56.7850 3 55 975 -17.3925 57.2925 TC 65 3 270
1996098S13085 1996 31 SI MM ITELLE 1996-04-16 06:00:00 TS -17.3667 56.9667 55 975 reunion main 306 306 O____O______O_ jtwc_sh SH261996 -17.4000 57.2000 65 1 -17.3000 56.5000 3 55 975 4.00000 4.00000 -17.4000 57.2000 TC 65 3 259
1996098S13085 1996 31 SI MM ITELLE 1996-04-16 09:00:00 TS -17.4166 56.8025 main 310 302 P____P______P_ SH261996 -17.4500 57.0725 60 0 -17.3500 56.2625 3 52 977 -17.4500 57.0725 TC 60 3 253
1996098S13085 1996 31 SI MM ITELLE 1996-04-16 12:00:00 TS -17.4667 56.6333 50 980 reunion main 305 305 O____O______O_ jtwc_sh SH261996 -17.5000 56.9000 55 0 -17.4000 56.1000 3 50 980 3.50000 4.00000 -17.5000 56.9000 TC 55 3 259
1996098S13085 1996 31 SI MM ITELLE 1996-04-16 15:00:00 TS -17.4792 56.4550 main 309 309 P____P______P_ SH261996 -17.5150 56.6650 52 0 -17.4075 56.0350 3 50 980 -17.5150 56.6650 TC 52 4 270
1996098S13085 1996 31 SI MM ITELLE 1996-04-16 18:00:00 TS -17.4667 56.2667 50 980 reunion main 317 317 O____O______O_ jtwc_sh SH261996 -17.5000 56.4000 50 0 -17.4000 56.0000 3 50 980 3.50000 4.00000 -17.5000 56.4000 TC 50 4 277
1996098S13085 1996 31 SI MM ITELLE 1996-04-16 21:00:00 TS -17.4383 56.0792 main 336 336 P____P______P_ SH261996 -17.4574 56.1575 47 0 -17.4000 55.9225 3 47 982 -17.4574 56.1575 TC 47 4 280
1996098S13085 1996 31 SI MM ITELLE 1996-04-17 00:00:00 TS -17.4000 55.8667 45 984 reunion main 345 345 O____O______O_ jtwc_sh SH261996 -17.4000 55.9000 45 0 -17.4000 55.8000 3 45 984 3.00000 3.50000 -17.4000 55.9000 TC 45 4 277
1996098S13085 1996 31 SI MM ITELLE 1996-04-17 03:00:00 TS -17.3866 55.6151 main 362 362 P____P______P_ SH261996 -17.3725 55.6076 45 0 -17.4150 55.6301 3 45 984 -17.3725 55.6076 TC 45 5 277
1996098S13085 1996 31 SI MM ITELLE 1996-04-17 06:00:00 TS -17.3333 55.3333 45 984 reunion main 389 389 O____O______O_ jtwc_sh SH261996 -17.3000 55.3000 45 0 -17.4000 55.4000 3 45 984 2.50000 3.50000 -17.3000 55.3000 TC 45 6 290
1996098S13085 1996 31 SI MM ITELLE 1996-04-17 09:00:00 TS -17.1792 55.0282 main 417 417 P____P______P_ SH261996 -17.1075 54.9924 42 0 -17.3226 55.1000 3 42 986 -17.1075 54.9924 TC 42 7 300
1996098S13085 1996 31 SI MM ITELLE 1996-04-17 12:00:00 TS -17.0000 54.7333 40 988 reunion main 451 451 O____O______O_ jtwc_sh SH261996 -16.9000 54.7000 40 0 -17.2000 54.8000 3 40 988 2.00000 3.00000 -16.9000 54.7000 TC 40 6 301
1996098S13085 1996 31 SI MM ITELLE 1996-04-17 15:00:00 TS -16.8733 54.4926 main 459 435 P____P______P_ SH261996 -16.7849 54.4426 37 0 -17.0499 54.5925 3 37 990 -16.7849 54.4426 TC 37 5 298
1996098S13085 1996 31 SI MM ITELLE 1996-04-17 18:00:00 TS -16.7667 54.2667 35 992 reunion main 435 401 O____O______O_ jtwc_sh SH261996 -16.7000 54.2000 35 0 -16.9000 54.4000 3 35 992 2.00000 3.00000 -16.7000 54.2000 TC 35 5 295
1996098S13085 1996 31 SI MM ITELLE 1996-04-17 21:00:00 TS -16.6691 54.0267 main 401 377 P____P______P_ SH261996 -16.5999 53.9575 32 -1 -16.8075 54.1651 3 32 993 -16.5999 53.9575 TC 32 5 293
1996098S13085 1996 31 SI MM ITELLE 1996-04-18 00:00:00 TS -16.5667 53.7667 30 995 reunion main 377 339 O____O______O_ jtwc_sh SH261996 -16.5000 53.7000 30 -1 -16.7000 53.9000 2 30 995 2.00000 2.50000 -16.5000 53.7000 TC 30 6 294
1996098S13085 1996 31 SI MM ITELLE 1996-04-18 03:00:00 TS -16.4283 53.4691 main 339 305 P____P______P_ SH261996 -16.3925 53.4000 30 -1 -16.5000 53.6074 2 27 996 -16.3925 53.4000 TC 30 6 295
1996098S13085 1996 31 SI MM ITELLE 1996-04-18 06:00:00 TS -16.3000 53.1800 25 998 reunion main 305 272 O____O______O_ jtwc_sh SH261996 -16.3000 53.1000 30 -1 -16.3000 53.3000 2 25 998 2.00000 2.00000 -16.3000 53.1000 TC 30 6 293
1996098S13085 1996 31 SI MM ITELLE 1996-04-18 09:00:00 TS -16.2087 52.9188 main 272 248 P____P______P_ SH261996 -16.2400 52.8375 27 -1 -16.1775 53.0001 2 25 999 -16.2400 52.8375 TC 27 5 289
1996098S13085 1996 31 SI MM ITELLE 1996-04-18 12:00:00 TS -16.1333 52.6667 25 1000 reunion main 248 214 O____O______O_ jtwc_sh SH261996 -16.2000 52.6000 25 -1 -16.1000 52.7000 2 25 1000 1.50000 2.00000 -16.2000 52.6000 TC 25 5 288
1996098S13085 1996 31 SI MM ITELLE 1996-04-18 15:00:00 TS -16.0425 52.3850 main 214 184 _____P________ SH261996 -1 -16.0425 52.3850 2 22 1001 TC 6 284
1996098S13085 1996 31 SI MM ITELLE 1996-04-18 18:00:00 TS -16.0000 52.1000 20 1002 reunion main 184 164 _____O________ -1 -16.0000 52.1000 2 20 1002 1.50000 2.00000 5 280
1996098S13085 1996 31 SI MM ITELLE 1996-04-18 21:00:00 TS -15.9525 51.8800 main 164 140 _____P________ -1 -15.9525 51.8800 2 20 1003 4 285
1996098S13085 1996 31 SI MM ITELLE 1996-04-19 00:00:00 TS -15.9000 51.7000 20 1004 reunion main 140 _____O________ -1 -15.9000 51.7000 6 20 1004 9.90000 4 287

IBTrACS Databaseについて

本データベースは、米国NOAAが公開する1842年以降の世界の熱帯低気圧のベストトラックデータアーカイブInternational Best Track Archive for Climate Stewardship (IBTrACS)を、ウェブで閲覧しやすい形式に変換したものです。

最終更新日:2021-10-08